createdAt,value
2019-02-27T00:00:21.003Z,20.72
2019-02-27T00:01:26.091Z,24.45
2019-02-27T00:02:28.835Z,19.82
2019-02-27T00:03:31.651Z,15.80
2019-02-27T00:04:35.529Z,16.30
2019-02-27T00:05:41.419Z,14.13
2019-02-27T00:06:42.822Z,14.28
2019-02-27T00:07:45.564Z,16.05
2019-02-27T00:08:48.499Z,14.75
2019-02-27T00:09:51.472Z,14.07
2019-02-27T00:10:55.086Z,14.13
2019-02-27T00:11:57.594Z,16.45
2019-02-27T00:13:00.127Z,12.45
2019-02-27T00:14:04.742Z,21.77
2019-02-27T00:15:07.906Z,16.07
2019-02-27T00:16:11.043Z,17.35
2019-02-27T00:17:15.105Z,14.38
2019-02-27T00:18:19.111Z,12.20
2019-02-27T00:19:21.664Z,12.93
2019-02-27T00:20:24.354Z,14.47
2019-02-27T00:21:26.977Z,18.02
2019-02-27T00:22:29.540Z,14.90
2019-02-27T00:23:32.280Z,12.28
2019-02-27T00:24:36.841Z,12.58
2019-02-27T00:25:39.474Z,9.95
2019-02-27T00:26:42.525Z,11.93
2019-02-27T00:27:48.706Z,12.43
2019-02-27T00:28:50.132Z,11.80
2019-02-27T00:29:52.734Z,9.78
2019-02-27T00:30:55.322Z,10.95
2019-02-27T00:31:57.929Z,16.93
2019-02-27T00:33:00.695Z,12.75
2019-02-27T00:34:03.243Z,13.30
2019-02-27T00:35:07.365Z,9.83
2019-02-27T00:36:12.218Z,11.83
2019-02-27T00:37:18.735Z,12.00
2019-02-27T00:38:19.547Z,10.88
2019-02-27T00:39:23.140Z,12.47
2019-02-27T00:40:25.778Z,12.35
2019-02-27T00:41:28.475Z,11.83
2019-02-27T00:42:33.732Z,12.03
2019-02-27T00:43:35.676Z,11.65
2019-02-27T00:44:38.335Z,13.10
2019-02-27T00:45:41.093Z,15.35
2019-02-27T00:46:43.989Z,12.23
2019-02-27T00:47:48.118Z,12.23
2019-02-27T00:48:50.855Z,9.65
2019-02-27T00:49:53.390Z,12.20
2019-02-27T00:50:56.029Z,13.43
2019-02-27T00:51:58.727Z,12.95
2019-02-27T00:53:01.367Z,11.65
2019-02-27T00:54:03.944Z,9.98
2019-02-27T00:55:06.992Z,11.53
2019-02-27T00:56:11.967Z,11.78
2019-02-27T00:57:15.222Z,13.03
2019-02-27T00:58:18.056Z,11.38
2019-02-27T00:59:20.885Z,14.47
2019-02-27T01:00:23.411Z,12.73
2019-02-27T01:01:25.972Z,14.93
2019-02-27T01:02:28.514Z,10.90
2019-02-27T01:03:31.239Z,11.33
2019-02-27T01:04:35.190Z,10.10
2019-02-27T01:05:40.958Z,14.25
2019-02-27T01:06:45.048Z,9.73
2019-02-27T01:07:47.589Z,11.95
2019-02-27T01:08:50.200Z,12.88
2019-02-27T01:09:52.782Z,9.03
2019-02-27T01:10:55.285Z,10.95
2019-02-27T01:11:58.082Z,11.00
2019-02-27T01:13:00.608Z,12.85
2019-02-27T01:14:04.061Z,11.18
2019-02-27T01:15:10.408Z,9.75
2019-02-27T01:16:17.005Z,12.63
2019-02-27T01:17:18.195Z,12.03
2019-02-27T01:18:21.015Z,10.50
2019-02-27T01:19:23.643Z,12.18
2019-02-27T01:20:26.141Z,11.57
2019-02-27T01:21:28.853Z,10.08
2019-02-27T01:22:31.417Z,12.20
2019-02-27T01:23:34.081Z,9.33
2019-02-27T01:24:36.766Z,9.75
2019-02-27T01:25:39.434Z,11.95
2019-02-27T01:26:42.186Z,12.33
2019-02-27T01:27:46.695Z,13.20
2019-02-27T01:28:49.572Z,9.95
2019-02-27T01:29:52.100Z,13.30
2019-02-27T01:30:54.934Z,8.28
2019-02-27T01:31:57.624Z,10.48
2019-02-27T01:33:03.972Z,8.60
2019-02-27T01:34:05.444Z,15.15
2019-02-27T01:35:08.928Z,12.63
2019-02-27T01:36:11.544Z,10.90
2019-02-27T01:37:14.059Z,9.50
2019-02-27T01:38:16.721Z,12.90
2019-02-27T01:39:19.297Z,12.82
2019-02-27T01:40:21.917Z,11.85
2019-02-27T01:41:25.161Z,11.38
2019-02-27T01:42:31.993Z,10.00
2019-02-27T01:43:33.375Z,9.55
2019-02-27T01:44:35.898Z,13.05
2019-02-27T01:45:38.442Z,10.25
2019-02-27T01:46:40.971Z,12.47
2019-02-27T01:47:56.535Z,11.50
2019-02-27T01:48:59.225Z,9.58
2019-02-27T01:50:01.998Z,10.60
2019-02-27T01:51:04.665Z,14.93
2019-02-27T01:52:07.746Z,10.50
2019-02-27T01:53:10.394Z,9.93
2019-02-27T01:54:15.012Z,11.83
2019-02-27T01:55:21.684Z,8.43
2019-02-27T01:56:22.114Z,10.70
2019-02-27T01:57:25.148Z,10.70
2019-02-27T01:58:27.671Z,9.43
2019-02-27T01:59:30.212Z,10.20
2019-02-27T02:00:33.288Z,13.25
2019-02-27T02:01:35.824Z,7.65
2019-02-27T02:02:40.456Z,10.10
2019-02-27T02:03:47.196Z,9.68
2019-02-27T02:04:52.974Z,12.75
2019-02-27T02:05:54.275Z,8.98
2019-02-27T02:06:58.004Z,10.75
2019-02-27T02:08:00.756Z,10.98
2019-02-27T02:09:39.856Z,8.35
2019-02-27T02:10:42.655Z,8.88
2019-02-27T02:11:45.181Z,14.25
2019-02-27T02:12:51.138Z,11.38
2019-02-27T02:14:23.242Z,10.30
2019-02-27T02:15:58.101Z,9.43
2019-02-27T02:17:30.842Z,11.40
2019-02-27T02:19:05.367Z,10.15
2019-02-27T02:20:34.972Z,11.33
2019-02-27T02:22:17.653Z,10.25
2019-02-27T02:24:05.680Z,9.85
2019-02-27T02:25:52.798Z,10.72
2019-02-27T02:27:23.108Z,9.43
2019-02-27T02:29:10.461Z,12.53
2019-02-27T02:30:54.480Z,8.98
2019-02-27T02:32:16.763Z,8.98
2019-02-27T02:33:35.431Z,9.70
2019-02-27T02:35:00.939Z,10.68
2019-02-27T02:36:28.499Z,8.73
2019-02-27T02:37:51.222Z,9.95
2019-02-27T02:39:09.605Z,8.33
2019-02-27T02:40:30.818Z,11.25
2019-02-27T02:42:07.231Z,9.35
2019-02-27T02:43:39.996Z,9.88
2019-02-27T02:45:16.018Z,8.88
2019-02-27T02:46:50.311Z,8.93
2019-02-27T02:48:32.378Z,10.90
2019-02-27T02:50:09.008Z,10.53
2019-02-27T02:51:42.966Z,10.48
2019-02-27T02:53:31.712Z,14.30
2019-02-27T02:55:16.234Z,9.98
2019-02-27T02:56:29.670Z,9.20
2019-02-27T02:58:11.559Z,10.80
2019-02-27T02:59:59.494Z,8.28
2019-02-27T03:01:21.693Z,10.53
2019-02-27T03:02:48.945Z,9.58
2019-02-27T03:04:18.478Z,10.88
2019-02-27T03:05:42.973Z,7.70
2019-02-27T03:07:10.817Z,9.80
2019-02-27T03:08:55.281Z,9.93
2019-02-27T03:10:08.637Z,7.08
2019-02-27T03:12:02.332Z,11.08
2019-02-27T03:13:58.689Z,7.42
2019-02-27T03:15:35.750Z,10.08
2019-02-27T03:17:22.850Z,12.20
2019-02-27T03:19:04.859Z,8.68
2019-02-27T03:20:25.809Z,7.45
2019-02-27T03:22:18.552Z,8.53
2019-02-27T03:23:52.039Z,6.22
2019-02-27T03:25:40.289Z,9.13
2019-02-27T03:27:01.519Z,8.08
2019-02-27T03:28:51.900Z,11.53
2019-02-27T03:30:34.004Z,9.93
2019-02-27T03:31:57.432Z,11.63
2019-02-27T03:33:39.398Z,12.47
2019-02-27T03:35:10.694Z,7.92
2019-02-27T03:37:14.237Z,9.18
2019-02-27T03:38:55.817Z,10.32
2019-02-27T03:40:45.047Z,11.05
2019-02-27T03:42:38.331Z,14.13
2019-02-27T03:44:20.269Z,8.80
2019-02-27T03:46:06.257Z,10.88
2019-02-27T03:47:44.412Z,7.50
2019-02-27T03:49:40.980Z,10.78
2019-02-27T03:51:09.744Z,10.00
2019-02-27T03:52:52.831Z,8.68
2019-02-27T03:54:20.638Z,10.38
2019-02-27T03:56:01.181Z,10.43
2019-02-27T03:57:55.269Z,8.88
2019-02-27T03:59:30.729Z,9.35
2019-02-27T04:01:01.997Z,9.78
2019-02-27T04:02:31.341Z,9.00
2019-02-27T04:03:55.794Z,8.93
2019-02-27T04:05:53.027Z,11.40
2019-02-27T04:07:31.742Z,8.45
2019-02-27T04:09:00.703Z,11.22
2019-02-27T04:10:03.666Z,10.32
2019-02-27T04:11:06.851Z,9.13
2019-02-27T04:12:09.559Z,12.47
2019-02-27T04:13:12.083Z,8.95
2019-02-27T04:14:28.691Z,9.50
2019-02-27T04:15:31.409Z,10.38
2019-02-27T04:16:34.073Z,9.25
2019-02-27T04:17:35.555Z,7.87
2019-02-27T04:18:37.054Z,9.25
2019-02-27T04:19:40.536Z,10.38
2019-02-27T04:20:43.196Z,9.45
2019-02-27T04:21:45.853Z,12.53
2019-02-27T04:22:48.370Z,8.78
2019-02-27T04:23:50.897Z,8.75
2019-02-27T04:24:56.618Z,8.60
2019-02-27T04:25:58.204Z,7.15
2019-02-27T04:27:00.778Z,6.25
2019-02-27T04:28:03.488Z,9.13
2019-02-27T04:29:08.489Z,7.45
2019-02-27T04:30:14.666Z,8.73
2019-02-27T04:31:15.816Z,11.20
2019-02-27T04:32:18.678Z,10.03
2019-02-27T04:33:23.444Z,7.22
2019-02-27T04:34:25.701Z,8.20
2019-02-27T04:35:28.243Z,13.25
2019-02-27T04:36:30.976Z,12.63
2019-02-27T04:37:33.772Z,9.20
2019-02-27T04:38:36.436Z,10.35
2019-02-27T04:39:39.066Z,8.60
2019-02-27T04:40:41.702Z,10.20
2019-02-27T04:41:46.191Z,7.08
2019-02-27T04:42:49.023Z,11.73
2019-02-27T04:43:53.381Z,8.48
2019-02-27T04:44:55.922Z,10.48
2019-02-27T04:45:58.445Z,9.30
2019-02-27T04:47:02.119Z,8.95
2019-02-27T04:48:04.687Z,8.78
2019-02-27T04:49:07.223Z,8.53
2019-02-27T04:50:11.316Z,24.52
2019-02-27T04:51:16.860Z,8.73
2019-02-27T04:52:18.934Z,9.48
2019-02-27T04:53:21.888Z,17.00
2019-02-27T04:54:24.737Z,10.13
2019-02-27T04:55:27.308Z,12.07
2019-02-27T04:56:30.058Z,17.55
2019-02-27T04:57:33.729Z,11.25
2019-02-27T04:58:36.853Z,18.45
2019-02-27T04:59:39.472Z,13.08
2019-02-27T05:00:42.078Z,13.80
2019-02-27T05:01:44.746Z,14.15
2019-02-27T05:02:50.505Z,18.85
2019-02-27T05:03:53.014Z,20.80
2019-02-27T05:04:56.748Z,19.00
2019-02-27T05:05:59.501Z,12.95
2019-02-27T05:07:02.021Z,17.75
2019-02-27T05:08:04.729Z,22.32
2019-02-27T05:09:07.340Z,16.60
2019-02-27T05:10:10.094Z,14.35
2019-02-27T05:11:14.317Z,13.93
2019-02-27T05:12:17.717Z,18.32
2019-02-27T05:13:20.889Z,18.80
2019-02-27T05:14:27.456Z,16.95
2019-02-27T05:15:29.921Z,15.68
2019-02-27T05:16:32.987Z,18.62
2019-02-27T05:17:35.522Z,16.25
2019-02-27T05:18:38.106Z,14.55
2019-02-27T05:19:41.671Z,15.03
2019-02-27T05:20:45.702Z,20.27
2019-02-27T05:21:52.235Z,16.05
2019-02-27T05:22:53.577Z,15.83
2019-02-27T05:23:56.291Z,17.15
2019-02-27T05:24:58.904Z,16.95
2019-02-27T05:26:01.537Z,14.68
2019-02-27T05:27:04.092Z,16.45
2019-02-27T05:28:06.760Z,19.55
2019-02-27T05:29:09.428Z,14.38
2019-02-27T05:30:13.960Z,14.18
2019-02-27T05:31:19.040Z,16.02
2019-02-27T05:32:20.994Z,15.00
2019-02-27T05:33:23.759Z,14.13
2019-02-27T05:34:26.488Z,14.47
2019-02-27T05:35:29.014Z,16.20
2019-02-27T05:36:32.396Z,14.03
2019-02-27T05:37:36.074Z,13.45
2019-02-27T05:38:41.012Z,14.83
2019-02-27T05:39:44.343Z,12.05
2019-02-27T05:40:46.884Z,11.65
2019-02-27T05:41:49.639Z,19.55
2019-02-27T05:42:52.196Z,17.27
2019-02-27T05:43:54.722Z,13.78
2019-02-27T05:44:57.242Z,14.45
2019-02-27T05:46:02.783Z,14.98
2019-02-27T05:47:08.640Z,16.12
2019-02-27T05:48:11.018Z,16.95
2019-02-27T05:49:13.586Z,19.02
2019-02-27T05:50:16.326Z,18.07
2019-02-27T05:51:19.501Z,15.68
2019-02-27T05:52:22.005Z,21.45
2019-02-27T05:53:24.772Z,20.97
2019-02-27T05:54:30.008Z,26.50
2019-02-27T05:55:31.811Z,21.50
2019-02-27T05:56:34.395Z,27.37
2019-02-27T05:57:37.072Z,29.57
2019-02-27T05:58:39.678Z,24.65
2019-02-27T05:59:42.284Z,25.65
2019-02-27T06:00:44.834Z,21.33
2019-02-27T06:01:48.463Z,26.17
2019-02-27T06:02:51.238Z,19.67
2019-02-27T06:03:53.835Z,21.73
2019-02-27T06:04:59.174Z,23.50
2019-02-27T06:06:01.347Z,18.62
2019-02-27T06:07:03.883Z,24.27
2019-02-27T06:08:06.535Z,18.57
2019-02-27T06:09:10.483Z,22.65
2019-02-27T06:10:19.778Z,24.92
2019-02-27T06:11:19.427Z,21.15
2019-02-27T06:12:22.016Z,17.32
2019-02-27T06:13:24.820Z,20.52
2019-02-27T06:14:27.574Z,19.00
2019-02-27T06:15:30.287Z,21.95
2019-02-27T06:16:37.024Z,15.90
2019-02-27T06:17:43.431Z,16.27
2019-02-27T06:18:42.083Z,17.35
2019-02-27T06:19:44.776Z,16.30
2019-02-27T06:20:49.245Z,14.50
2019-02-27T06:21:56.054Z,16.48
2019-02-27T06:23:04.139Z,19.17
2019-02-27T06:24:04.811Z,14.55
2019-02-27T06:25:09.594Z,14.87
2019-02-27T06:26:12.264Z,14.47
2019-02-27T06:27:14.885Z,14.03
2019-02-27T06:28:19.343Z,12.28
2019-02-27T06:29:23.992Z,16.52
2019-02-27T06:30:27.949Z,16.32
2019-02-27T06:31:31.267Z,18.12
2019-02-27T06:32:35.721Z,15.00
2019-02-27T06:33:40.234Z,16.30
2019-02-27T06:34:42.755Z,15.53
2019-02-27T06:35:45.744Z,11.15
2019-02-27T06:36:48.234Z,14.15
2019-02-27T06:37:51.473Z,11.22
2019-02-27T06:38:54.062Z,14.87
2019-02-27T06:39:56.578Z,14.63
2019-02-27T06:40:59.451Z,16.00
2019-02-27T06:42:02.409Z,13.10
2019-02-27T06:43:04.998Z,12.43
2019-02-27T06:44:07.531Z,9.48
2019-02-27T06:45:12.682Z,10.30
2019-02-27T06:46:17.336Z,12.75
2019-02-27T06:47:20.624Z,12.95
2019-02-27T06:48:23.250Z,13.70
2019-02-27T06:49:25.836Z,9.15
2019-02-27T06:50:28.473Z,14.47
2019-02-27T06:51:33.401Z,12.80
2019-02-27T06:52:35.552Z,10.20
2019-02-27T06:53:38.134Z,7.65
2019-02-27T06:54:40.986Z,11.28
2019-02-27T06:55:43.684Z,12.68
2019-02-27T06:56:46.607Z,11.75
2019-02-27T06:57:49.421Z,16.00
2019-02-27T06:58:52.260Z,12.93
2019-02-27T06:59:57.515Z,14.20
2019-02-27T07:00:59.557Z,9.80
2019-02-27T07:02:02.290Z,12.13
2019-02-27T07:03:04.991Z,14.15
2019-02-27T07:04:08.221Z,12.78
2019-02-27T07:05:13.601Z,11.53
2019-02-27T07:06:21.254Z,13.30
2019-02-27T07:07:21.551Z,11.85
2019-02-27T07:08:24.180Z,10.28
2019-02-27T07:09:28.526Z,12.23
2019-02-27T07:10:31.154Z,11.40
2019-02-27T07:11:35.756Z,12.15
2019-02-27T07:12:39.645Z,9.90
2019-02-27T07:13:42.469Z,10.93
2019-02-27T07:14:45.076Z,11.00
2019-02-27T07:15:51.469Z,10.10
2019-02-27T07:16:57.178Z,11.78
2019-02-27T07:17:58.644Z,12.88
2019-02-27T07:19:01.291Z,11.35
2019-02-27T07:20:04.936Z,12.20
2019-02-27T07:21:08.739Z,14.85
2019-02-27T07:22:12.668Z,14.53
2019-02-27T07:23:15.307Z,13.15
2019-02-27T07:24:17.926Z,11.45
2019-02-27T07:25:20.643Z,11.93
2019-02-27T07:26:23.325Z,11.95
2019-02-27T07:27:28.295Z,11.90
2019-02-27T13:15:53.176Z,2.75
2019-02-27T13:17:03.393Z,3.42
2019-02-27T13:18:32.968Z,5.78
2019-02-27T13:20:21.977Z,3.12
2019-02-27T13:21:31.576Z,2.42
2019-02-27T13:22:47.428Z,6.21
2019-02-27T13:24:19.148Z,5.06
2019-02-27T13:26:45.485Z,3.17
2019-02-27T13:28:05.086Z,3.72
2019-02-27T13:29:26.841Z,4.73
2019-02-27T13:30:41.361Z,2.67
2019-02-27T13:31:51.449Z,2.90
2019-02-27T13:38:05.443Z,3.08
2019-02-27T13:39:25.583Z,3.06
2019-02-27T13:41:07.658Z,3.70
2019-02-27T13:42:32.139Z,4.05
2019-02-27T13:44:08.593Z,2.67
2019-02-27T13:44:52.570Z,5.72
2019-02-27T13:46:00.709Z,5.45
2019-02-27T13:47:49.862Z,4.83
2019-02-27T13:49:02.122Z,6.70
2019-02-27T13:50:33.421Z,3.37
2019-02-27T13:52:25.673Z,4.42
2019-02-27T13:55:00.777Z,4.33
2019-02-27T13:56:03.425Z,3.10
2019-02-27T13:57:06.900Z,5.30
2019-02-27T13:58:09.669Z,4.50
2019-02-27T13:59:12.417Z,5.78
2019-02-27T14:00:20.376Z,3.15
2019-02-27T14:01:21.738Z,3.75
2019-02-27T14:02:24.425Z,5.87
2019-02-27T14:03:27.026Z,4.37
2019-02-27T14:04:29.637Z,5.45
2019-02-27T14:05:35.067Z,3.30
2019-02-27T14:06:36.806Z,4.97
2019-02-27T14:07:39.474Z,6.05
2019-02-27T14:08:43.816Z,13.45
2019-02-27T14:09:46.679Z,5.20
2019-02-27T14:10:50.462Z,3.15
2019-02-27T14:11:58.425Z,4.25
2019-02-27T14:12:58.363Z,4.00
2019-02-27T14:14:01.047Z,1.62
2019-02-27T14:15:04.307Z,2.67
2019-02-27T14:16:06.973Z,4.42
2019-02-27T14:17:11.304Z,5.53
2019-02-27T14:18:16.201Z,3.22
2019-02-27T14:19:26.353Z,4.37
2019-02-27T14:21:35.254Z,3.62
2019-02-27T14:22:40.266Z,3.77
2019-02-27T14:23:41.602Z,2.33
2019-02-27T14:24:44.231Z,3.50
2019-02-27T14:25:47.021Z,3.20
2019-02-27T14:26:51.456Z,2.00
2019-02-27T14:27:54.088Z,4.65
2019-02-27T14:28:56.766Z,3.10
2019-02-27T14:30:03.723Z,4.12
2019-02-27T14:31:09.091Z,2.30
2019-02-27T14:32:10.093Z,6.28
2019-02-27T14:33:12.633Z,4.55
2019-02-27T14:34:15.719Z,2.67
2019-02-27T14:35:18.276Z,5.40
2019-02-27T14:36:20.954Z,3.65
2019-02-27T14:37:23.666Z,3.20
2019-02-27T14:38:26.226Z,3.80
2019-02-27T14:39:29.674Z,3.25
2019-02-27T14:40:37.638Z,2.77
2019-02-27T14:41:38.620Z,3.72
2019-02-27T14:42:42.030Z,3.00
2019-02-27T14:43:44.651Z,3.67
2019-02-27T14:44:47.479Z,2.65
2019-02-27T14:45:50.868Z,3.45
2019-02-27T14:46:53.831Z,1.67
2019-02-27T14:47:56.459Z,3.20
2019-02-27T14:48:59.214Z,2.40
2019-02-27T14:50:02.890Z,1.55
2019-02-27T14:51:08.034Z,5.30
2019-02-27T14:52:14.011Z,4.85
2019-02-27T14:53:16.588Z,3.72
2019-02-27T14:54:19.756Z,2.87
2019-02-27T14:55:22.310Z,3.87
2019-02-27T14:56:25.007Z,3.77
2019-02-27T14:57:27.956Z,3.50
2019-02-27T14:58:30.695Z,2.90
2019-02-27T14:59:33.304Z,2.65
2019-02-27T15:00:39.882Z,5.35
2019-02-27T15:01:41.395Z,3.77
2019-02-27T15:02:44.196Z,6.75
2019-02-27T15:03:46.723Z,4.30
2019-02-27T15:04:49.648Z,2.95
2019-02-27T15:05:52.339Z,3.42
2019-02-27T15:06:54.931Z,5.22
2019-02-27T15:07:57.667Z,3.00
2019-02-27T15:09:03.109Z,3.95
2019-02-27T15:10:07.251Z,2.30
2019-02-27T15:11:14.045Z,3.42
2019-02-27T15:12:14.575Z,3.77
2019-02-27T15:13:17.272Z,2.58
2019-02-27T15:14:19.804Z,2.35
2019-02-27T15:15:27.046Z,4.40
2019-02-27T15:16:29.558Z,4.33
2019-02-27T15:17:32.715Z,3.87
2019-02-27T15:18:35.535Z,5.03
2019-02-27T15:19:38.084Z,2.58
2019-02-27T15:20:41.286Z,2.45
2019-02-27T15:21:46.289Z,3.05
2019-02-27T15:22:49.021Z,3.87
2019-02-27T15:23:51.736Z,2.92
2019-02-27T15:24:54.559Z,5.05
2019-02-27T15:25:57.134Z,2.95
2019-02-27T15:26:59.778Z,4.55
2019-02-27T15:28:02.343Z,4.70
2019-02-27T15:29:05.704Z,4.20
2019-02-27T15:30:13.261Z,4.62
2019-02-27T15:31:21.005Z,4.87
2019-02-27T15:32:21.570Z,3.87
2019-02-27T15:33:24.248Z,3.87
2019-02-27T15:34:26.812Z,3.15
2019-02-27T15:35:29.353Z,3.25
2019-02-27T15:36:32.229Z,2.85
2019-02-27T15:37:37.456Z,5.42
2019-02-27T15:38:39.504Z,3.05
2019-02-27T15:39:42.250Z,4.10
2019-02-27T15:40:46.631Z,4.50
2019-02-27T15:41:49.185Z,3.58
2019-02-27T15:42:52.177Z,2.35
2019-02-27T15:44:00.207Z,3.30
2019-02-27T15:44:59.798Z,2.90
2019-02-27T15:46:02.335Z,3.87
2019-02-27T15:47:05.597Z,1.50
2019-02-27T15:48:08.341Z,2.77
2019-02-27T15:49:12.845Z,1.75
2019-02-27T15:50:17.053Z,2.42
2019-02-27T15:51:19.579Z,3.42
2019-02-27T15:52:22.125Z,3.37
2019-02-27T15:53:24.773Z,2.95
2019-02-27T15:54:27.333Z,4.75
2019-02-27T15:55:33.379Z,2.65
2019-02-27T15:56:34.585Z,3.70
2019-02-27T15:57:37.290Z,3.80
2019-02-27T15:58:40.010Z,4.42
2019-02-27T15:59:42.554Z,5.72
2019-02-27T16:00:45.173Z,4.00
2019-02-27T16:01:48.115Z,2.83
2019-02-27T16:02:52.727Z,3.85
2019-02-27T16:03:55.450Z,2.65
2019-02-27T16:05:00.084Z,4.08
2019-02-27T16:06:05.600Z,2.98
2019-02-27T16:07:07.749Z,4.97
2019-02-27T16:09:10.635Z,4.72
2019-02-27T16:10:15.258Z,2.67
2019-02-27T16:11:18.012Z,6.47
2019-02-27T16:12:25.460Z,4.42
2019-02-27T16:13:25.141Z,4.83
2019-02-27T16:14:29.904Z,3.33
2019-02-27T16:15:32.194Z,3.35
2019-02-27T16:16:34.896Z,4.92
2019-02-27T16:17:37.667Z,3.27
2019-02-27T16:18:40.317Z,2.98
2019-02-27T16:19:44.659Z,3.95
2019-02-27T16:20:49.850Z,3.15
2019-02-27T16:21:56.823Z,3.87
2019-02-27T16:23:03.993Z,4.28
2019-02-27T16:24:03.764Z,3.15
2019-02-27T16:25:07.612Z,5.90
2019-02-27T16:26:10.197Z,3.25
2019-02-27T16:27:12.795Z,6.10
2019-02-27T16:28:16.614Z,3.30
2019-02-27T16:29:19.985Z,4.08
2019-02-27T16:30:31.345Z,4.08
2019-02-27T16:31:30.179Z,4.83
2019-02-27T16:32:32.990Z,4.37
2019-02-27T16:33:36.038Z,5.40
2019-02-27T16:34:38.796Z,3.60
2019-02-27T16:35:42.977Z,4.70
2019-02-27T16:36:46.892Z,3.55
2019-02-27T16:37:56.344Z,5.03
2019-02-27T16:38:55.098Z,5.05
2019-02-27T16:39:57.938Z,5.37
2019-02-27T16:41:02.390Z,6.75
2019-02-27T16:42:06.102Z,6.28
2019-02-27T16:43:10.307Z,11.45
2019-02-27T16:44:13.594Z,10.05
2019-02-27T16:45:18.058Z,7.55
2019-02-27T16:46:20.787Z,8.90
2019-02-27T16:47:24.239Z,6.30
2019-02-27T16:48:26.885Z,5.83
2019-02-27T16:49:29.478Z,6.83
2019-02-27T16:50:32.333Z,6.42
2019-02-27T16:51:34.897Z,6.03
2019-02-27T16:52:41.728Z,6.17
2019-02-27T16:53:43.369Z,5.95
2019-02-27T16:54:46.316Z,5.35
2019-02-27T16:55:49.437Z,7.83
2019-02-27T16:56:52.228Z,6.80
2019-02-27T16:57:57.423Z,4.92
2019-02-27T16:58:59.639Z,5.60
2019-02-27T17:00:02.436Z,4.97
2019-02-27T17:01:06.869Z,7.53
2019-02-27T17:02:09.590Z,6.40
2019-02-27T17:03:13.385Z,9.00
2019-02-27T17:04:16.695Z,4.75
2019-02-27T17:05:19.282Z,7.78
2019-02-27T17:06:21.850Z,5.45
2019-02-27T17:07:26.101Z,5.25
2019-02-27T17:08:29.551Z,4.60
2019-02-27T17:09:32.328Z,4.78
2019-02-27T17:10:35.076Z,7.00
2019-02-27T17:11:37.754Z,5.28
2019-02-27T17:12:40.858Z,9.03
2019-02-27T17:13:46.999Z,7.83
2019-02-27T17:14:50.582Z,5.62
2019-02-27T17:15:53.187Z,8.50
2019-02-27T17:16:56.808Z,5.35
2019-02-27T17:18:01.397Z,8.18
2019-02-27T17:19:04.273Z,11.45
2019-02-27T17:20:12.522Z,7.70
2019-02-27T17:21:13.343Z,4.67
2019-02-27T17:22:15.948Z,5.83
2019-02-27T17:23:18.576Z,5.90
2019-02-27T17:24:22.069Z,4.12
2019-02-27T17:25:29.882Z,5.85
2019-02-27T17:26:32.001Z,6.62
2019-02-27T17:27:34.865Z,6.17
2019-02-27T17:28:37.454Z,6.47
2019-02-27T17:29:44.070Z,6.33
2019-02-27T17:30:46.816Z,6.25
2019-02-27T17:31:52.559Z,5.25
2019-02-27T17:32:54.025Z,6.45
2019-02-27T17:33:56.665Z,5.80
2019-02-27T17:34:59.445Z,6.17
2019-02-27T17:36:02.000Z,6.00
2019-02-27T17:37:06.507Z,6.40
2019-02-27T17:38:10.916Z,4.97
2019-02-27T17:39:13.869Z,5.15
2019-02-27T17:40:17.085Z,13.05
2019-02-27T17:41:19.936Z,9.50
2019-02-27T17:42:22.625Z,7.00
2019-02-27T17:43:28.768Z,8.28
2019-02-27T17:44:30.156Z,7.40
2019-02-27T17:45:32.825Z,8.38
2019-02-27T17:46:35.462Z,6.55
2019-02-27T17:47:38.130Z,9.30
2019-02-27T17:48:43.297Z,7.42
2019-02-27T17:49:45.186Z,8.13
2019-02-27T17:50:47.768Z,7.05
2019-02-27T17:51:50.426Z,7.47
2019-02-27T17:52:52.987Z,7.72
2019-02-27T17:53:57.916Z,6.70
2019-02-27T17:55:03.566Z,6.22
2019-02-27T17:56:05.387Z,6.53
2019-02-27T17:57:08.052Z,5.47
2019-02-27T17:58:10.612Z,7.47
2019-02-27T17:59:13.294Z,7.25
2019-02-27T18:00:19.443Z,6.67
2019-02-27T18:01:25.261Z,7.53
2019-02-27T18:02:27.028Z,6.60
2019-02-27T18:03:29.658Z,5.92
2019-02-27T18:04:32.513Z,8.00
2019-02-27T18:05:35.307Z,7.78
2019-02-27T18:06:37.960Z,6.70
2019-02-27T18:07:42.750Z,8.00
2019-02-27T18:08:49.531Z,5.50
2019-02-27T18:09:49.971Z,7.80
2019-02-27T18:10:52.551Z,6.45
2019-02-27T18:11:55.296Z,7.65
2019-02-27T18:12:58.856Z,7.03
2019-02-27T18:14:08.935Z,4.50
2019-02-27T18:15:11.116Z,5.40
2019-02-27T18:16:14.806Z,5.97
2019-02-27T18:17:17.436Z,5.35
2019-02-27T18:18:19.995Z,7.62
2019-02-27T18:19:23.053Z,4.58
2019-02-27T18:20:25.878Z,5.42
2019-02-27T18:21:33.229Z,5.58
2019-02-27T18:22:33.210Z,4.05
2019-02-27T18:23:35.925Z,6.62
2019-02-27T18:24:38.625Z,6.40
2019-02-27T18:25:42.297Z,7.45
2019-02-27T18:26:49.981Z,4.53
2019-02-27T18:27:49.728Z,5.20
2019-02-27T18:28:52.398Z,5.62
2019-02-27T18:29:56.407Z,5.92
2019-02-27T18:30:59.005Z,7.30
2019-02-27T18:32:06.171Z,6.65
2019-02-27T18:33:06.155Z,6.37
2019-02-27T18:34:08.935Z,7.53
2019-02-27T18:35:14.045Z,5.53
2019-02-27T18:36:16.801Z,6.08
2019-02-27T18:37:19.797Z,6.47
2019-02-27T18:38:27.599Z,4.62
2019-02-27T18:39:27.163Z,5.28
2019-02-27T18:40:29.744Z,6.20
2019-02-27T18:41:32.305Z,5.15
2019-02-27T18:42:35.098Z,6.75
2019-02-27T18:43:37.620Z,4.83
2019-02-27T18:44:41.507Z,6.08
2019-02-27T18:45:44.492Z,6.30
2019-02-27T18:46:47.347Z,6.12
2019-02-27T18:47:50.023Z,4.67
2019-02-27T18:48:52.664Z,7.10
2019-02-27T18:49:58.209Z,4.33
2019-02-27T18:51:01.967Z,5.08
2019-02-27T18:52:06.594Z,4.45
2019-02-27T18:53:13.366Z,4.60
2019-02-27T18:54:16.095Z,3.92
2019-02-27T18:55:18.788Z,5.90
2019-02-27T18:56:21.648Z,4.50
2019-02-27T18:57:25.307Z,5.95
2019-02-27T18:58:27.993Z,5.75
2019-02-27T18:59:30.607Z,6.70
2019-02-27T19:00:36.236Z,10.50
2019-02-27T19:01:38.060Z,5.15
2019-02-27T19:02:40.885Z,5.37
2019-02-27T19:03:43.692Z,5.80
2019-02-27T19:04:47.914Z,8.85
2019-02-27T19:05:50.615Z,5.83
2019-02-27T19:06:53.207Z,4.22
2019-02-27T19:07:56.053Z,6.90
2019-02-27T19:08:59.596Z,4.55
2019-02-27T19:10:06.858Z,4.72
2019-02-27T19:11:08.913Z,5.97
2019-02-27T19:12:11.632Z,4.58
2019-02-27T19:13:16.042Z,5.95
2019-02-27T19:14:20.350Z,5.97
2019-02-27T19:15:23.623Z,8.33
2019-02-27T19:16:26.320Z,7.65
2019-02-27T19:17:31.494Z,5.60
2019-02-27T19:18:33.499Z,5.45
2019-02-27T19:19:36.302Z,5.83
2019-02-27T19:20:39.386Z,5.87
2019-02-27T19:21:41.974Z,6.45
2019-02-27T19:22:44.567Z,8.60
2019-02-27T19:23:49.526Z,6.22
2019-02-27T19:24:52.347Z,8.38
2019-02-27T19:25:55.178Z,5.08
2019-02-27T19:26:57.927Z,5.70
2019-02-27T19:28:00.777Z,5.70
2019-02-27T19:29:03.557Z,9.45
2019-02-27T19:30:09.375Z,5.53
2019-02-27T19:31:13.555Z,5.33
2019-02-27T19:32:23.085Z,6.22
2019-02-27T19:33:32.625Z,6.20
2019-02-27T19:34:35.593Z,5.25
2019-02-27T19:35:40.051Z,5.30
2019-02-27T19:36:44.458Z,5.00
2019-02-27T19:37:49.446Z,5.40
2019-02-27T19:38:52.148Z,6.45
2019-02-27T19:39:56.333Z,5.42
2019-02-27T19:41:01.249Z,5.28
2019-02-27T19:42:04.039Z,4.35
2019-02-27T19:43:08.936Z,6.22
2019-02-27T19:44:11.616Z,4.83
2019-02-27T19:45:14.409Z,6.28
2019-02-27T19:46:17.125Z,7.87
2019-02-27T19:47:21.536Z,6.37
2019-02-27T19:48:26.231Z,6.72
2019-02-27T19:49:28.869Z,6.25
2019-02-27T19:50:46.280Z,8.70
2019-02-27T19:51:47.902Z,5.20
2019-02-27T19:52:50.712Z,7.33
2019-02-27T19:53:53.454Z,7.55
2019-02-27T19:54:56.113Z,7.15
2019-02-27T19:56:01.579Z,6.25
2019-02-27T19:57:07.923Z,9.33
2019-02-27T19:58:08.294Z,10.50
2019-02-27T19:59:12.219Z,6.12
2019-02-27T20:00:18.786Z,6.78
2019-02-27T20:01:21.570Z,8.15
2019-02-27T20:02:24.690Z,7.92
2019-02-27T20:03:29.283Z,5.50
2019-02-27T20:04:31.961Z,5.08
2019-02-27T20:05:36.334Z,6.28
2019-02-27T20:06:39.241Z,6.60
2019-02-27T20:07:43.517Z,8.48
2019-02-27T20:08:46.138Z,6.22
2019-02-27T20:09:51.374Z,5.47
2019-02-27T20:10:53.436Z,6.40
2019-02-27T20:11:56.038Z,7.05
2019-02-27T20:12:59.246Z,5.20
2019-02-27T20:14:02.643Z,7.50
2019-02-27T20:15:08.310Z,7.55
2019-02-27T20:16:14.060Z,7.20
2019-02-27T20:17:17.871Z,6.60
2019-02-27T20:18:23.342Z,7.12
2019-02-27T20:19:28.458Z,7.10
2019-02-27T20:20:30.305Z,8.70
2019-02-27T20:21:33.190Z,7.83
2019-02-27T20:22:35.833Z,12.90
2019-02-27T20:23:38.567Z,6.62
2019-02-27T20:24:43.061Z,6.97
2019-02-27T20:25:45.770Z,6.62
2019-02-27T20:26:48.414Z,8.80
2019-02-27T20:27:52.685Z,9.58
2019-02-27T20:28:57.045Z,8.88
2019-02-27T20:29:59.668Z,7.28
2019-02-27T20:31:02.364Z,7.12
2019-02-27T20:32:04.958Z,9.33
2019-02-27T20:33:08.617Z,7.95
2019-02-27T20:34:11.749Z,8.40
2019-02-27T20:35:17.208Z,6.47
2019-02-27T20:36:20.641Z,6.12
2019-02-27T20:37:23.425Z,6.35
2019-02-27T20:38:26.220Z,6.95